RUK24UD EGSS-EIKN
Flight info
| Callsign | RUK24UD |
|---|---|
| Flight time | 1h 5m |
| Altitude | 34000 |
| Route | UTAVA Q75 BUZAD T420 TNT UL28 PENIL M144 BAGSO DCT SUROX DCT EDONO EDONO1B |
| Aircraft | B38M/M-SDE1FGHILORVWXY/HB1 |
Departure
| Time | 2026-05-06 17:06 |
|---|---|
| Airport | London Stansted Airport (EGSS) |
Arrival
| Time | 2026-05-06 18:11 |
|---|---|
| Airport | Ireland West Airport Knock (EIKN) |
| Time | Latitude | Longitude | Altitude | Speed | Heading |
|---|---|---|---|---|---|
| 2026-05-06 16:41 | 51.89106 | 0.25571 | 364 ft | 0 kts | 44° |
| 2026-05-06 16:56 | 51.89104 | 0.25566 | 364 ft | 2 kts | 44° |
| 2026-05-06 16:56 | 51.89091 | 0.25549 | 364 ft | 2 kts | 37° |
| 2026-05-06 16:56 | 51.89077 | 0.25534 | 360 ft | 2 kts | 22° |
| 2026-05-06 16:57 | 51.89061 | 0.25532 | 357 ft | 2 kts | 329° |
| 2026-05-06 16:57 | 51.89049 | 0.25550 | 358 ft | 2 kts | 313° |
| 2026-05-06 16:57 | 51.89039 | 0.25567 | 359 ft | 1 kts | 313° |
| 2026-05-06 16:57 | 51.89039 | 0.25568 | 359 ft | 0 kts | 313° |
| 2026-05-06 16:59 | 51.89045 | 0.25557 | 361 ft | 5 kts | 313° |
| 2026-05-06 17:00 | 51.89091 | 0.25477 | 361 ft | 13 kts | 313° |
| 2026-05-06 17:00 | 51.89143 | 0.25341 | 358 ft | 15 kts | 310° |
| 2026-05-06 17:00 | 51.89127 | 0.25203 | 355 ft | 15 kts | 223° |
| 2026-05-06 17:00 | 51.89045 | 0.25081 | 358 ft | 17 kts | 222° |
| 2026-05-06 17:01 | 51.88955 | 0.24945 | 355 ft | 19 kts | 223° |
| 2026-05-06 17:01 | 51.88857 | 0.24795 | 359 ft | 20 kts | 223° |
| 2026-05-06 17:01 | 51.88749 | 0.24636 | 353 ft | 22 kts | 223° |
| 2026-05-06 17:01 | 51.88624 | 0.24449 | 350 ft | 26 kts | 222° |
| 2026-05-06 17:02 | 51.88500 | 0.24263 | 347 ft | 24 kts | 223° |
| 2026-05-06 17:02 | 51.88382 | 0.24086 | 347 ft | 22 kts | 223° |
| 2026-05-06 17:02 | 51.88268 | 0.23914 | 351 ft | 23 kts | 222° |
| 2026-05-06 17:02 | 51.88144 | 0.23728 | 353 ft | 25 kts | 223° |
| 2026-05-06 17:03 | 51.88013 | 0.23531 | 348 ft | 26 kts | 223° |
| 2026-05-06 17:03 | 51.87886 | 0.23342 | 344 ft | 23 kts | 223° |
| 2026-05-06 17:03 | 51.87770 | 0.23167 | 343 ft | 20 kts | 223° |
| 2026-05-06 17:03 | 51.87733 | 0.23039 | 342 ft | 13 kts | 300° |
| 2026-05-06 17:04 | 51.87796 | 0.22924 | 348 ft | 15 kts | 313° |
| 2026-05-06 17:04 | 51.87866 | 0.22800 | 336 ft | 17 kts | 313° |
| 2026-05-06 17:04 | 51.87936 | 0.22684 | 334 ft | 11 kts | 327° |
| 2026-05-06 17:04 | 51.87985 | 0.22706 | 333 ft | 1 kts | 44° |
| 2026-05-06 17:05 | 51.88013 | 0.22750 | 335 ft | 15 kts | 44° |
| 2026-05-06 17:05 | 51.88288 | 0.23157 | 337 ft | 92 kts | 43° |
| 2026-05-06 17:05 | 51.88926 | 0.24117 | 363 ft | 153 kts | 43° |
| 2026-05-06 17:05 | 51.89738 | 0.25375 | 819 ft | 177 kts | 43° |
| 2026-05-06 17:06 | 51.90639 | 0.26731 | 1730 ft | 183 kts | 41° |
| 2026-05-06 17:06 | 51.91634 | 0.28224 | 2400 ft | 205 kts | 41° |
| 2026-05-06 17:06 | 51.92901 | 0.29431 | 3189 ft | 221 kts | 15° |
| 2026-05-06 17:06 | 51.94491 | 0.29421 | 4032 ft | 240 kts | 345° |
| 2026-05-06 17:07 | 51.95984 | 0.28030 | 4890 ft | 259 kts | 316° |
| 2026-05-06 17:07 | 51.96898 | 0.25466 | 5809 ft | 271 kts | 283° |
| 2026-05-06 17:07 | 51.97196 | 0.22440 | 6876 ft | 274 kts | 281° |
| 2026-05-06 17:07 | 51.97531 | 0.19374 | 7857 ft | 278 kts | 281° |
| 2026-05-06 17:08 | 51.97849 | 0.16280 | 8893 ft | 281 kts | 275° |
| 2026-05-06 17:08 | 51.97780 | 0.13093 | 9907 ft | 284 kts | 265° |
| 2026-05-06 17:08 | 51.97590 | 0.09854 | 10633 ft | 296 kts | 266° |
| 2026-05-06 17:08 | 51.97406 | 0.06432 | 11166 ft | 313 kts | 265° |
| 2026-05-06 17:09 | 51.97221 | 0.02847 | 11806 ft | 324 kts | 266° |
| 2026-05-06 17:09 | 51.97039 | -0.00789 | 12752 ft | 328 kts | 266° |
| 2026-05-06 17:09 | 51.96856 | -0.04452 | 13787 ft | 326 kts | 267° |
| 2026-05-06 17:09 | 51.96672 | -0.08140 | 14556 ft | 330 kts | 267° |
| 2026-05-06 17:10 | 51.96485 | -0.11867 | 15294 ft | 333 kts | 266° |
| 2026-05-06 17:10 | 51.96296 | -0.15603 | 16038 ft | 336 kts | 266° |
| 2026-05-06 17:10 | 51.96104 | -0.19412 | 16732 ft | 340 kts | 266° |
| 2026-05-06 17:10 | 51.95907 | -0.23250 | 17436 ft | 344 kts | 266° |
| 2026-05-06 17:11 | 51.95707 | -0.27153 | 18141 ft | 347 kts | 266° |
| 2026-05-06 17:11 | 51.95504 | -0.31070 | 18759 ft | 351 kts | 266° |
| 2026-05-06 17:11 | 51.95299 | -0.35006 | 19371 ft | 353 kts | 266° |
| 2026-05-06 17:11 | 51.95090 | -0.38994 | 19940 ft | 356 kts | 266° |
| 2026-05-06 17:12 | 51.94877 | -0.43017 | 20516 ft | 359 kts | 265° |
| 2026-05-06 17:12 | 51.94664 | -0.47067 | 21097 ft | 362 kts | 266° |
| 2026-05-06 17:12 | 51.94835 | -0.51092 | 21649 ft | 364 kts | 284° |
| 2026-05-06 17:12 | 51.95824 | -0.54850 | 22194 ft | 368 kts | 302° |
| 2026-05-06 17:13 | 51.97532 | -0.57961 | 22729 ft | 371 kts | 319° |
| 2026-05-06 17:13 | 51.99360 | -0.60748 | 23922 ft | 351 kts | 313° |
| 2026-05-06 17:13 | 52.01085 | -0.63657 | 24090 ft | 367 kts | 312° |
| 2026-05-06 17:13 | 52.02947 | -0.66711 | 23701 ft | 395 kts | 315° |
| 2026-05-06 17:14 | 52.05125 | -0.69631 | 23697 ft | 410 kts | 327° |
| 2026-05-06 17:14 | 52.07638 | -0.71632 | 24733 ft | 397 kts | 336° |
| 2026-05-06 17:14 | 52.10270 | -0.72899 | 25478 ft | 395 kts | 348° |
| 2026-05-06 17:14 | 52.12987 | -0.73680 | 25824 ft | 398 kts | 340° |
| 2026-05-06 17:15 | 52.15398 | -0.75740 | 26264 ft | 391 kts | 321° |
| 2026-05-06 17:15 | 52.17657 | -0.78232 | 26571 ft | 398 kts | 326° |
| 2026-05-06 17:15 | 52.20032 | -0.80580 | 26968 ft | 400 kts | 326° |
| 2026-05-06 17:15 | 52.22423 | -0.82948 | 27356 ft | 403 kts | 326° |
| 2026-05-06 17:16 | 52.24795 | -0.85299 | 27745 ft | 406 kts | 326° |
| 2026-05-06 17:16 | 52.27214 | -0.87699 | 28148 ft | 408 kts | 326° |
| 2026-05-06 17:16 | 52.29646 | -0.90117 | 28532 ft | 410 kts | 326° |
| 2026-05-06 17:16 | 52.32084 | -0.92542 | 28938 ft | 412 kts | 326° |
| 2026-05-06 17:17 | 52.34546 | -0.94994 | 29295 ft | 414 kts | 326° |
| 2026-05-06 17:17 | 52.37016 | -0.97459 | 29651 ft | 417 kts | 326° |
| 2026-05-06 17:17 | 52.39490 | -0.99929 | 30005 ft | 419 kts | 326° |
| 2026-05-06 17:17 | 52.41981 | -1.02420 | 30331 ft | 421 kts | 326° |
| 2026-05-06 17:18 | 52.44481 | -1.04924 | 30616 ft | 423 kts | 326° |
| 2026-05-06 17:18 | 52.46996 | -1.07446 | 30904 ft | 424 kts | 326° |
| 2026-05-06 17:18 | 52.48669 | -1.09126 | 31092 ft | 426 kts | 326° |
| 2026-05-06 17:18 | 52.51201 | -1.11671 | 31374 ft | 428 kts | 326° |
| 2026-05-06 17:19 | 52.53745 | -1.14232 | 31664 ft | 429 kts | 326° |
| 2026-05-06 17:19 | 52.56298 | -1.16804 | 31948 ft | 431 kts | 326° |
| 2026-05-06 17:19 | 52.58850 | -1.19378 | 32212 ft | 433 kts | 326° |
| 2026-05-06 17:19 | 52.61422 | -1.21976 | 32477 ft | 435 kts | 326° |
| 2026-05-06 17:20 | 52.64006 | -1.24589 | 32783 ft | 436 kts | 326° |
| 2026-05-06 17:20 | 52.66584 | -1.27201 | 33156 ft | 435 kts | 326° |
| 2026-05-06 17:20 | 52.69161 | -1.29814 | 33518 ft | 434 kts | 326° |
| 2026-05-06 17:20 | 52.71738 | -1.32434 | 33871 ft | 434 kts | 326° |
| 2026-05-06 17:21 | 52.74311 | -1.35054 | 34245 ft | 433 kts | 326° |
| 2026-05-06 17:21 | 52.76873 | -1.37667 | 34533 ft | 433 kts | 326° |
| 2026-05-06 17:21 | 52.79436 | -1.40284 | 34816 ft | 433 kts | 326° |
| 2026-05-06 17:21 | 52.81992 | -1.42897 | 35066 ft | 433 kts | 326° |
| 2026-05-06 17:22 | 52.84551 | -1.45517 | 35317 ft | 433 kts | 326° |
| 2026-05-06 17:22 | 52.87115 | -1.48146 | 35573 ft | 433 kts | 326° |
| 2026-05-06 17:22 | 52.89677 | -1.50776 | 35816 ft | 433 kts | 326° |
| 2026-05-06 17:22 | 52.92239 | -1.53410 | 36065 ft | 433 kts | 326° |
| 2026-05-06 17:23 | 52.94796 | -1.56044 | 36316 ft | 433 kts | 326° |
| 2026-05-06 17:23 | 52.97356 | -1.58684 | 36537 ft | 433 kts | 326° |
| 2026-05-06 17:23 | 52.99912 | -1.61323 | 36779 ft | 433 kts | 326° |
| 2026-05-06 17:23 | 53.02464 | -1.63961 | 37005 ft | 433 kts | 326° |
| 2026-05-06 17:24 | 53.05027 | -1.66615 | 37055 ft | 434 kts | 326° |
| 2026-05-06 17:24 | 53.10104 | -1.71889 | 37024 ft | 431 kts | 326° |
| 2026-05-06 17:25 | 53.15194 | -1.77190 | 37034 ft | 432 kts | 326° |
| 2026-05-06 17:25 | 53.20303 | -1.82526 | 37029 ft | 432 kts | 326° |
| 2026-05-06 17:25 | 53.22703 | -1.85469 | 37003 ft | 428 kts | 313° |
| 2026-05-06 17:26 | 53.24505 | -1.89370 | 37033 ft | 424 kts | 298° |
| 2026-05-06 17:26 | 53.27298 | -1.98106 | 37013 ft | 426 kts | 297° |
| 2026-05-06 17:27 | 53.29972 | -2.06891 | 37015 ft | 427 kts | 296° |
| 2026-05-06 17:27 | 53.32619 | -2.15791 | 37020 ft | 427 kts | 296° |
| 2026-05-06 17:28 | 53.35246 | -2.24683 | 37021 ft | 427 kts | 295° |
| 2026-05-06 17:28 | 53.37190 | -2.34065 | 37024 ft | 427 kts | 288° |
| 2026-05-06 17:29 | 53.39006 | -2.43538 | 37019 ft | 427 kts | 288° |
| 2026-05-06 17:29 | 53.40804 | -2.53016 | 37018 ft | 427 kts | 288° |
| 2026-05-06 17:30 | 53.42582 | -2.62439 | 37013 ft | 427 kts | 288° |
| 2026-05-06 17:30 | 53.44368 | -2.71955 | 37010 ft | 427 kts | 288° |
| 2026-05-06 17:31 | 53.46143 | -2.81458 | 37009 ft | 427 kts | 288° |
| 2026-05-06 17:31 | 53.47915 | -2.90995 | 37010 ft | 427 kts | 288° |
| 2026-05-06 17:32 | 53.49658 | -3.00427 | 37010 ft | 427 kts | 288° |
| 2026-05-06 17:32 | 53.51280 | -3.09249 | 37008 ft | 427 kts | 288° |
| 2026-05-06 17:33 | 53.53032 | -3.18821 | 37010 ft | 428 kts | 288° |
| 2026-05-06 17:33 | 53.54773 | -3.28383 | 37010 ft | 428 kts | 288° |
| 2026-05-06 17:34 | 53.56508 | -3.37959 | 37010 ft | 428 kts | 288° |
| 2026-05-06 17:34 | 53.58220 | -3.47461 | 37011 ft | 428 kts | 287° |
| 2026-05-06 17:35 | 53.59939 | -3.57056 | 37017 ft | 428 kts | 287° |
| 2026-05-06 17:35 | 53.61562 | -3.66706 | 36996 ft | 429 kts | 279° |
| 2026-05-06 17:36 | 53.62237 | -3.81791 | 37012 ft | 430 kts | 275° |
| 2026-05-06 17:36 | 53.62652 | -3.91824 | 37008 ft | 430 kts | 275° |
| 2026-05-06 17:37 | 53.63055 | -4.01886 | 37014 ft | 431 kts | 275° |
| 2026-05-06 17:37 | 53.63449 | -4.11958 | 37013 ft | 431 kts | 275° |
| 2026-05-06 17:38 | 53.63835 | -4.22039 | 37011 ft | 431 kts | 275° |
| 2026-05-06 17:38 | 53.64212 | -4.32105 | 37012 ft | 431 kts | 275° |
| 2026-05-06 17:39 | 53.64580 | -4.42137 | 37012 ft | 431 kts | 275° |
| 2026-05-06 17:39 | 53.64941 | -4.52234 | 37011 ft | 431 kts | 275° |
| 2026-05-06 17:40 | 53.65294 | -4.62337 | 37012 ft | 431 kts | 275° |
| 2026-05-06 17:40 | 53.65637 | -4.72395 | 37003 ft | 431 kts | 275° |
| 2026-05-06 17:41 | 53.65974 | -4.82508 | 37002 ft | 431 kts | 275° |
| 2026-05-06 17:41 | 53.66305 | -4.92610 | 37003 ft | 431 kts | 275° |
| 2026-05-06 17:42 | 53.66625 | -5.02631 | 36742 ft | 419 kts | 275° |
| 2026-05-06 17:42 | 53.66777 | -5.07470 | 36509 ft | 410 kts | 275° |
| 2026-05-06 17:42 | 53.66924 | -5.12203 | 36129 ft | 404 kts | 276° |
| 2026-05-06 17:43 | 53.67066 | -5.16926 | 35610 ft | 403 kts | 276° |
| 2026-05-06 17:43 | 53.67205 | -5.21654 | 35065 ft | 402 kts | 277° |
| 2026-05-06 17:43 | 53.67342 | -5.26362 | 34590 ft | 400 kts | 277° |
| 2026-05-06 17:43 | 53.67474 | -5.30964 | 34149 ft | 398 kts | 278° |
| 2026-05-06 17:44 | 53.67605 | -5.35634 | 33631 ft | 396 kts | 277° |
| 2026-05-06 17:44 | 53.67732 | -5.40264 | 33117 ft | 394 kts | 277° |
| 2026-05-06 17:44 | 53.67859 | -5.44863 | 32654 ft | 391 kts | 277° |
| 2026-05-06 17:44 | 53.68056 | -5.49427 | 32182 ft | 385 kts | 285° |
| 2026-05-06 17:45 | 53.68857 | -5.53644 | 31671 ft | 378 kts | 295° |
| 2026-05-06 17:45 | 53.69756 | -5.57801 | 31266 ft | 375 kts | 292° |
| 2026-05-06 17:45 | 53.70631 | -5.61916 | 30888 ft | 371 kts | 292° |
| 2026-05-06 17:45 | 53.71508 | -5.65987 | 30477 ft | 368 kts | 292° |
| 2026-05-06 17:46 | 53.72383 | -5.70026 | 30070 ft | 365 kts | 292° |
| 2026-05-06 17:46 | 53.73244 | -5.73991 | 29612 ft | 363 kts | 292° |
| 2026-05-06 17:46 | 53.74119 | -5.78022 | 29188 ft | 359 kts | 292° |
| 2026-05-06 17:46 | 53.74963 | -5.81917 | 28802 ft | 355 kts | 291° |
| 2026-05-06 17:47 | 53.75806 | -5.85815 | 28428 ft | 351 kts | 291° |
| 2026-05-06 17:47 | 53.76639 | -5.89674 | 28050 ft | 348 kts | 291° |
| 2026-05-06 17:47 | 53.77462 | -5.93492 | 27681 ft | 345 kts | 291° |
| 2026-05-06 17:47 | 53.78277 | -5.97283 | 27317 ft | 341 kts | 291° |
| 2026-05-06 17:48 | 53.79083 | -6.01036 | 26959 ft | 338 kts | 291° |
| 2026-05-06 17:48 | 53.79885 | -6.04775 | 26601 ft | 335 kts | 291° |
| 2026-05-06 17:48 | 53.80674 | -6.08467 | 26247 ft | 332 kts | 291° |
| 2026-05-06 17:48 | 53.81457 | -6.12133 | 25899 ft | 329 kts | 291° |
| 2026-05-06 17:49 | 53.82234 | -6.15777 | 25564 ft | 330 kts | 291° |
| 2026-05-06 17:49 | 53.83018 | -6.19463 | 25213 ft | 335 kts | 291° |
| 2026-05-06 17:49 | 53.83810 | -6.23189 | 24877 ft | 337 kts | 291° |
| 2026-05-06 17:49 | 53.84600 | -6.26917 | 24527 ft | 335 kts | 290° |
| 2026-05-06 17:50 | 53.85373 | -6.30571 | 24171 ft | 333 kts | 290° |
| 2026-05-06 17:50 | 53.86157 | -6.34283 | 23831 ft | 331 kts | 290° |
| 2026-05-06 17:50 | 53.86919 | -6.37897 | 23485 ft | 329 kts | 290° |
| 2026-05-06 17:50 | 53.87695 | -6.41584 | 23089 ft | 327 kts | 290° |
| 2026-05-06 17:51 | 53.88442 | -6.45143 | 22734 ft | 323 kts | 290° |
| 2026-05-06 17:51 | 53.89192 | -6.48720 | 22402 ft | 320 kts | 290° |
| 2026-05-06 17:51 | 53.89932 | -6.52252 | 22065 ft | 316 kts | 290° |
| 2026-05-06 17:51 | 53.90662 | -6.55748 | 21736 ft | 312 kts | 289° |
| 2026-05-06 17:52 | 53.91382 | -6.59199 | 21430 ft | 309 kts | 289° |
| 2026-05-06 17:52 | 53.92094 | -6.62617 | 21123 ft | 305 kts | 289° |
| 2026-05-06 17:52 | 53.92797 | -6.66003 | 20805 ft | 302 kts | 289° |
| 2026-05-06 17:52 | 53.93493 | -6.69353 | 20502 ft | 300 kts | 289° |
| 2026-05-06 17:53 | 53.94186 | -6.72700 | 20184 ft | 304 kts | 289° |
| 2026-05-06 17:53 | 53.94893 | -6.76118 | 19865 ft | 308 kts | 288° |
| 2026-05-06 17:53 | 53.95605 | -6.79563 | 19554 ft | 308 kts | 288° |
| 2026-05-06 17:53 | 53.96310 | -6.82987 | 19245 ft | 306 kts | 288° |
| 2026-05-06 17:54 | 53.97013 | -6.86398 | 18929 ft | 304 kts | 288° |
| 2026-05-06 17:54 | 53.97698 | -6.89728 | 18627 ft | 301 kts | 288° |
| 2026-05-06 17:54 | 53.98386 | -6.93077 | 18315 ft | 299 kts | 288° |
| 2026-05-06 17:54 | 53.99072 | -6.96420 | 17974 ft | 297 kts | 288° |
| 2026-05-06 17:55 | 53.99589 | -6.99786 | 17557 ft | 294 kts | 272° |
| 2026-05-06 17:55 | 53.99592 | -7.03237 | 17280 ft | 289 kts | 270° |
| 2026-05-06 17:55 | 53.99596 | -7.06602 | 17175 ft | 279 kts | 269° |
| 2026-05-06 17:55 | 53.99510 | -7.09934 | 16555 ft | 288 kts | 267° |
| 2026-05-06 17:56 | 53.99411 | -7.13338 | 16131 ft | 290 kts | 267° |
| 2026-05-06 17:56 | 53.99314 | -7.16778 | 15762 ft | 292 kts | 267° |
| 2026-05-06 17:56 | 53.99220 | -7.20223 | 15401 ft | 296 kts | 267° |
| 2026-05-06 17:56 | 53.99124 | -7.23715 | 15045 ft | 296 kts | 267° |
| 2026-05-06 17:57 | 53.99027 | -7.27222 | 14694 ft | 297 kts | 267° |
| 2026-05-06 17:57 | 53.98930 | -7.30724 | 14347 ft | 296 kts | 267° |
| 2026-05-06 17:57 | 53.98832 | -7.34224 | 14008 ft | 296 kts | 267° |
| 2026-05-06 17:57 | 53.98733 | -7.37709 | 13662 ft | 295 kts | 267° |
| 2026-05-06 17:58 | 53.98634 | -7.41146 | 13274 ft | 295 kts | 267° |
| 2026-05-06 17:58 | 53.98534 | -7.44640 | 12901 ft | 295 kts | 267° |
| 2026-05-06 17:58 | 53.98432 | -7.48113 | 12516 ft | 294 kts | 267° |
| 2026-05-06 17:58 | 53.98330 | -7.51576 | 12145 ft | 293 kts | 267° |
| 2026-05-06 17:59 | 53.98227 | -7.55026 | 11779 ft | 292 kts | 267° |
| 2026-05-06 17:59 | 53.98124 | -7.58467 | 11417 ft | 292 kts | 266° |
| 2026-05-06 17:59 | 53.98020 | -7.61904 | 11055 ft | 291 kts | 266° |
| 2026-05-06 17:59 | 53.97915 | -7.65341 | 10700 ft | 290 kts | 266° |
| 2026-05-06 18:00 | 53.97809 | -7.68762 | 10346 ft | 290 kts | 266° |
| 2026-05-06 18:00 | 53.97703 | -7.72175 | 10000 ft | 289 kts | 266° |
| 2026-05-06 18:00 | 53.97597 | -7.75542 | 9637 ft | 288 kts | 266° |
| 2026-05-06 18:00 | 53.97489 | -7.78945 | 9249 ft | 288 kts | 266° |
| 2026-05-06 18:01 | 53.97380 | -7.82338 | 8861 ft | 287 kts | 266° |
| 2026-05-06 18:01 | 53.97271 | -7.85724 | 8482 ft | 287 kts | 266° |
| 2026-05-06 18:01 | 53.97160 | -7.89107 | 8109 ft | 286 kts | 266° |
| 2026-05-06 18:01 | 53.97049 | -7.92481 | 7734 ft | 286 kts | 266° |
| 2026-05-06 18:02 | 53.96937 | -7.95859 | 7365 ft | 286 kts | 266° |
| 2026-05-06 18:02 | 53.96825 | -7.99210 | 6993 ft | 286 kts | 266° |
| 2026-05-06 18:02 | 53.96711 | -8.02577 | 6637 ft | 285 kts | 266° |
| 2026-05-06 18:02 | 53.96599 | -8.05898 | 6236 ft | 277 kts | 266° |
| 2026-05-06 18:03 | 53.96489 | -8.09098 | 5919 ft | 265 kts | 266° |
| 2026-05-06 18:03 | 53.96383 | -8.12162 | 5640 ft | 256 kts | 266° |
| 2026-05-06 18:03 | 53.96314 | -8.14156 | 5465 ft | 254 kts | 266° |
| 2026-05-06 18:03 | 53.96209 | -8.17142 | 5184 ft | 253 kts | 266° |
| 2026-05-06 18:04 | 53.96105 | -8.20116 | 4909 ft | 251 kts | 266° |
| 2026-05-06 18:04 | 53.96000 | -8.23070 | 4634 ft | 250 kts | 266° |
| 2026-05-06 18:04 | 53.95895 | -8.26010 | 4342 ft | 248 kts | 266° |
| 2026-05-06 18:04 | 53.95790 | -8.28922 | 4057 ft | 246 kts | 266° |
| 2026-05-06 18:05 | 53.95685 | -8.31818 | 3777 ft | 245 kts | 266° |
| 2026-05-06 18:05 | 53.95722 | -8.34661 | 3507 ft | 243 kts | 272° |
| 2026-05-06 18:05 | 53.95740 | -8.37521 | 3231 ft | 242 kts | 267° |
| 2026-05-06 18:05 | 53.95611 | -8.40332 | 3080 ft | 235 kts | 263° |
| 2026-05-06 18:06 | 53.95396 | -8.43083 | 3034 ft | 235 kts | 261° |
| 2026-05-06 18:06 | 53.95130 | -8.45806 | 3016 ft | 231 kts | 259° |
| 2026-05-06 18:06 | 53.94847 | -8.48422 | 3016 ft | 218 kts | 259° |
| 2026-05-06 18:06 | 53.94573 | -8.50871 | 3015 ft | 204 kts | 259° |
| 2026-05-06 18:07 | 53.94313 | -8.53170 | 3024 ft | 194 kts | 258° |
| 2026-05-06 18:07 | 53.94068 | -8.55314 | 3000 ft | 177 kts | 259° |
| 2026-05-06 18:07 | 53.93838 | -8.57321 | 2963 ft | 171 kts | 259° |
| 2026-05-06 18:07 | 53.93611 | -8.59311 | 2981 ft | 172 kts | 259° |
| 2026-05-06 18:08 | 53.93381 | -8.61310 | 3016 ft | 172 kts | 259° |
| 2026-05-06 18:08 | 53.93151 | -8.63315 | 2808 ft | 174 kts | 258° |
| 2026-05-06 18:08 | 53.92920 | -8.65307 | 2518 ft | 174 kts | 258° |
| 2026-05-06 18:08 | 53.92708 | -8.67254 | 2292 ft | 159 kts | 259° |
| 2026-05-06 18:09 | 53.92528 | -8.69034 | 2043 ft | 147 kts | 260° |
| 2026-05-06 18:09 | 53.92362 | -8.70699 | 1812 ft | 141 kts | 260° |
| 2026-05-06 18:09 | 53.92163 | -8.72345 | 1665 ft | 139 kts | 258° |
| 2026-05-06 18:09 | 53.91960 | -8.73946 | 1481 ft | 142 kts | 258° |
| 2026-05-06 18:10 | 53.91761 | -8.75592 | 1279 ft | 141 kts | 258° |
| 2026-05-06 18:10 | 53.91573 | -8.77231 | 1028 ft | 143 kts | 257° |
| 2026-05-06 18:10 | 53.91381 | -8.78874 | 847 ft | 141 kts | 257° |
| 2026-05-06 18:10 | 53.91189 | -8.80499 | 666 ft | 138 kts | 256° |
| 2026-05-06 18:11 | 53.91031 | -8.81832 | 643 ft | 81 kts | 259° |
| 2026-05-06 18:11 | 53.90950 | -8.82522 | 646 ft | 55 kts | 258° |
| 2026-05-06 18:11 | 53.90887 | -8.83051 | 644 ft | 40 kts | 259° |
| 2026-05-06 18:11 | 53.90849 | -8.83390 | 645 ft | 25 kts | 259° |
| 2026-05-06 18:12 | 53.90810 | -8.83543 | 646 ft | 13 kts | 227° |
| 2026-05-06 18:12 | 53.90797 | -8.83641 | 646 ft | 8 kts | 344° |
| 2026-05-06 18:12 | 53.90826 | -8.83574 | 646 ft | 9 kts | 79° |
| 2026-05-06 18:12 | 53.90842 | -8.83427 | 645 ft | 20 kts | 79° |
| 2026-05-06 18:13 | 53.90879 | -8.83107 | 644 ft | 34 kts | 79° |
| 2026-05-06 18:13 | 53.90930 | -8.82664 | 646 ft | 41 kts | 79° |
| 2026-05-06 18:13 | 53.90987 | -8.82186 | 646 ft | 42 kts | 78° |
| 2026-05-06 18:13 | 53.91047 | -8.81688 | 643 ft | 44 kts | 79° |
| 2026-05-06 18:14 | 53.91103 | -8.81217 | 644 ft | 34 kts | 78° |
| 2026-05-06 18:14 | 53.91128 | -8.81002 | 648 ft | 15 kts | 78° |
| 2026-05-06 18:14 | 53.91179 | -8.80867 | 647 ft | 14 kts | 359° |
| 2026-05-06 18:14 | 53.91285 | -8.80902 | 645 ft | 15 kts | 348° |
| 2026-05-06 18:15 | 53.91371 | -8.80930 | 645 ft | 8 kts | 349° |
| 2026-05-06 18:15 | 53.91396 | -8.80941 | 645 ft | 1 kts | 335° |
| 2026-05-06 18:15 | 53.91399 | -8.80949 | 646 ft | 1 kts | 299° |
| 2026-05-06 18:15 | 53.91399 | -8.80955 | 646 ft | 0 kts | 267° |
| 2026-05-06 18:16 | 53.91398 | -8.80956 | 646 ft | 0 kts | 255° |
| 2026-05-06 18:16 | 53.91398 | -8.80958 | 646 ft | 0 kts | 245° |